Cincinnati, Ohio
Traffic Map
Current Weather Conditions
Cincinnati, Ohio
Overcast
Overcast
-7°
Feels Like: -12°
Wind Chill: -12° Ceiling: 6500
Heat Index: -7° Visibility: 10mi
Dew Point: -11° Wind: 7mph
Humidity: 77% Direction: 20° (NNE)
Pressure: 30.02in Gusts: 0mph
Raw Report DataKLUK 271153Z 02006KT 10SM OVC065 M07/M11 A3002 RMK AO2 SLP173 60000 T10721106 11056 21078 53022
Traffic Incident Summary
Active as of:
Severity:
Category:
InformationThere was an issue retrieving the traffic information for this location. Please try a different location or try again shortly.
Advertisements
Track Severe Weather on mobile